Time;durP1;ratioP1;P1;durP2;ratioP2;P2;SDS_P1;SDS_P2;PMS_P1;PMS_P2;Temp;Humidity;BMP_temperature;BMP_pressure;BME280_temperature;BME280_humidity;BME280_pressure;Samples;Min_cycle;Max_cycle;Signal;HPM_P1;HPM_P2
2021/10/22 00:00:34;;;;;;;3.30;1.20;;;;;;;;;;5047377;28;20187;-86
2021/10/22 00:03:01;;;;;;;2.90;1.20;;;;;;;;;;5043108;28;20728;-86
2021/10/22 00:05:32;;;;;;;3.70;1.10;;;;;;;;;;5015409;28;20202;-86
2021/10/22 00:08:00;;;;;;;2.50;1.07;;;;;;;;;;5020611;28;20725;-86
2021/10/22 00:10:27;;;;;;;3.57;1.50;;;;;;;;;;5036466;28;20226;-86
2021/10/22 00:12:54;;;;;;;3.00;1.20;;;;;;;;;;5045129;28;20190;-86
2021/10/22 00:15:22;;;;;;;2.47;1.33;;;;;;;;;;5042569;28;20220;-86
2021/10/22 00:17:49;;;;;;;1.83;1.10;;;;;;;;;;5043995;28;20217;-87
2021/10/22 00:20:16;;;;;;;1.70;1.00;;;;;;;;;;5044122;28;20706;-86
2021/10/22 00:22:44;;;;;;;1.97;0.97;;;;;;;;;;5045326;28;20272;-86
2021/10/22 00:25:11;;;;;;;3.00;1.30;;;;;;;;;;5044501;28;20223;-85
2021/10/22 00:27:39;;;;;;;1.93;0.97;;;;;;;;;;5043277;28;20221;-84
2021/10/22 00:30:06;;;;;;;1.93;1.07;;;;;;;;;;5044360;28;20277;-83
2021/10/22 00:32:33;;;;;;;2.37;1.30;;;;;;;;;;5043294;28;20214;-84
2021/10/22 00:35:01;;;;;;;2.57;1.00;;;;;;;;;;5045576;28;20209;-84
2021/10/22 00:37:28;;;;;;;3.60;1.40;;;;;;;;;;5040048;28;20222;-84
2021/10/22 00:39:55;;;;;;;2.27;1.13;;;;;;;;;;5045585;28;20231;-84
2021/10/22 00:42:23;;;;;;;3.33;1.10;;;;;;;;;;5039389;28;20213;-84
2021/10/22 00:44:52;;;;;;;3.13;1.07;;;;;;;;;;5040982;28;20218;-84
2021/10/22 00:47:19;;;;;;;3.33;1.60;;;;;;;;;;5044044;28;20207;-83
2021/10/22 00:49:46;;;;;;;2.00;0.90;;;;;;;;;;5044393;28;20202;-84
2021/10/22 00:52:16;;;;;;;1.83;0.97;;;;;;;;;;5046392;28;20671;-84
2021/10/22 00:54:43;;;;;;;3.27;1.03;;;;;;;;;;5045493;28;20693;-84
2021/10/22 00:57:13;;;;;;;2.60;1.27;;;;;;;;;;5043020;28;20203;-84
2021/10/22 00:59:40;;;;;;;1.33;0.93;;;;;;;;;;5043153;28;20236;-84
2021/10/22 01:02:09;;;;;;;3.87;1.30;;;;;;;;;;5034490;28;20760;-84
2021/10/22 01:04:38;;;;;;;3.43;1.73;;;;;;;;;;5045248;28;20222;-84
2021/10/22 01:07:07;;;;;;;2.73;1.00;;;;;;;;;;5045634;28;20205;-83
2021/10/22 01:09:35;;;;;;;3.03;1.20;;;;;;;;;;5027673;28;20242;-84
2021/10/22 01:12:03;;;;;;;2.13;1.00;;;;;;;;;;5038013;28;20213;-84
2021/10/22 01:14:31;;;;;;;1.70;1.00;;;;;;;;;;5031866;28;20218;-84
2021/10/22 01:16:58;;;;;;;2.30;0.93;;;;;;;;;;5038290;28;20590;-86
2021/10/22 01:19:25;;;;;;;3.47;1.10;;;;;;;;;;5043762;28;20570;-85
2021/10/22 01:21:52;;;;;;;3.20;1.10;;;;;;;;;;5039192;28;20240;-86
2021/10/22 01:24:19;;;;;;;3.07;1.13;;;;;;;;;;5031642;28;20573;-86
2021/10/22 01:26:47;;;;;;;2.73;1.07;;;;;;;;;;5041973;28;20211;-86
2021/10/22 01:29:16;;;;;;;2.53;1.07;;;;;;;;;;5028831;28;20241;-86
2021/10/22 01:31:43;;;;;;;4.27;1.50;;;;;;;;;;5036548;28;20198;-87
2021/10/22 01:34:11;;;;;;;4.33;1.30;;;;;;;;;;5028547;28;20206;-87
2021/10/22 01:36:39;;;;;;;2.43;1.20;;;;;;;;;;5041407;28;20207;-87
2021/10/22 01:39:06;;;;;;;2.80;1.37;;;;;;;;;;5035345;28;20198;-86
2021/10/22 01:41:33;;;;;;;2.70;1.27;;;;;;;;;;5035205;28;20267;-86
2021/10/22 01:44:01;;;;;;;3.50;1.60;;;;;;;;;;5037734;28;20260;-86
2021/10/22 01:46:29;;;;;;;3.20;1.17;;;;;;;;;;5042533;28;20661;-85
2021/10/22 01:48:57;;;;;;;2.30;1.00;;;;;;;;;;5042954;28;20775;-86
2021/10/22 01:51:24;;;;;;;2.90;1.30;;;;;;;;;;5035270;28;20677;-86
2021/10/22 01:53:52;;;;;;;2.40;1.33;;;;;;;;;;5043260;28;20218;-85
2021/10/22 01:56:19;;;;;;;2.20;0.97;;;;;;;;;;5032302;28;20571;-85
2021/10/22 01:58:46;;;;;;;3.40;1.33;;;;;;;;;;5041813;28;20692;-85
2021/10/22 02:01:13;;;;;;;2.77;1.63;;;;;;;;;;5040286;28;20220;-85
2021/10/22 02:03:41;;;;;;;3.07;1.30;;;;;;;;;;5042895;28;20230;-85
2021/10/22 02:06:08;;;;;;;2.80;1.53;;;;;;;;;;5033068;28;20658;-84
2021/10/22 02:08:35;;;;;;;2.70;1.30;;;;;;;;;;5035258;28;20228;-84
2021/10/22 02:11:02;;;;;;;2.13;1.30;;;;;;;;;;5044160;28;20226;-85
2021/10/22 02:13:29;;;;;;;3.13;1.23;;;;;;;;;;5040845;28;20191;-85
2021/10/22 02:15:57;;;;;;;2.10;1.13;;;;;;;;;;5030034;28;20211;-85
2021/10/22 02:18:24;;;;;;;2.87;1.23;;;;;;;;;;5039838;28;20785;-86
2021/10/22 02:20:51;;;;;;;2.13;1.10;;;;;;;;;;5024561;28;20215;-86
2021/10/22 02:23:19;;;;;;;2.17;1.43;;;;;;;;;;5038923;28;20812;-86
2021/10/22 02:25:47;;;;;;;2.23;1.37;;;;;;;;;;5044046;28;20199;-86
2021/10/22 02:28:14;;;;;;;2.63;1.30;;;;;;;;;;5040407;28;20206;-86
2021/10/22 02:30:42;;;;;;;2.67;1.30;;;;;;;;;;5042863;28;20203;-86
2021/10/22 02:33:10;;;;;;;3.20;1.40;;;;;;;;;;5038523;28;20218;-85
2021/10/22 02:35:37;;;;;;;3.07;1.17;;;;;;;;;;5027532;28;20203;-85
2021/10/22 02:38:04;;;;;;;3.87;1.53;;;;;;;;;;5038367;28;20214;-85
2021/10/22 02:40:32;;;;;;;2.73;1.10;;;;;;;;;;5025542;28;20214;-85
2021/10/22 02:42:59;;;;;;;2.97;1.47;;;;;;;;;;5040750;28;20197;-84
2021/10/22 02:45:26;;;;;;;3.17;1.70;;;;;;;;;;5039595;28;20217;-85
2021/10/22 02:47:54;;;;;;;2.33;1.17;;;;;;;;;;5038111;28;20193;-85
2021/10/22 02:50:21;;;;;;;2.83;1.50;;;;;;;;;;5043928;28;20202;-84
2021/10/22 02:52:49;;;;;;;3.80;1.50;;;;;;;;;;5040725;28;20186;-85
2021/10/22 02:55:16;;;;;;;2.73;1.40;;;;;;;;;;5041699;28;20324;-85
2021/10/22 02:57:44;;;;;;;3.77;1.60;;;;;;;;;;5031707;28;20314;-85
2021/10/22 03:00:12;;;;;;;2.27;1.30;;;;;;;;;;5042016;28;20208;-86
2021/10/22 03:02:45;;;;;;;3.47;1.40;;;;;;;;;;5031800;28;20218;-85
2021/10/22 03:05:12;;;;;;;3.50;1.80;;;;;;;;;;5041970;28;20214;-86
2021/10/22 03:07:39;;;;;;;4.17;1.87;;;;;;;;;;5037645;28;20209;-83
2021/10/22 03:10:07;;;;;;;3.40;1.33;;;;;;;;;;5042306;28;20233;-84
2021/10/22 03:12:36;;;;;;;2.63;1.50;;;;;;;;;;5049706;28;20540;-83
2021/10/22 03:15:03;;;;;;;4.17;1.60;;;;;;;;;;5047567;28;20218;-84
2021/10/22 03:17:31;;;;;;;3.47;1.50;;;;;;;;;;5044936;28;20570;-87
2021/10/22 03:19:58;;;;;;;2.13;1.23;;;;;;;;;;5042564;28;20209;-84
2021/10/22 03:22:25;;;;;;;2.73;1.47;;;;;;;;;;5051106;28;20202;-86
2021/10/22 03:24:52;;;;;;;4.00;1.40;;;;;;;;;;5047358;28;20233;-84
2021/10/22 03:27:22;;;;;;;2.37;1.33;;;;;;;;;;5032088;28;20225;-85
2021/10/22 03:29:49;;;;;;;3.47;1.70;;;;;;;;;;5047783;28;20860;-84
2021/10/22 03:32:16;;;;;;;2.57;1.27;;;;;;;;;;5047775;28;20874;-84
2021/10/22 03:34:43;;;;;;;3.40;1.33;;;;;;;;;;5045122;28;20606;-83
2021/10/22 03:37:11;;;;;;;3.37;1.47;;;;;;;;;;5050124;28;20237;-83
2021/10/22 03:39:38;;;;;;;2.90;1.50;;;;;;;;;;5039336;28;20198;-83
2021/10/22 03:42:05;;;;;;;4.10;1.87;;;;;;;;;;5049830;28;20198;-83
2021/10/22 03:44:33;;;;;;;2.90;1.50;;;;;;;;;;5044187;28;20249;-84
2021/10/22 03:47:00;;;;;;;3.37;1.47;;;;;;;;;;5049116;28;20190;-84
2021/10/22 03:49:27;;;;;;;2.83;1.47;;;;;;;;;;5045942;28;20202;-83
2021/10/22 03:51:54;;;;;;;2.30;1.50;;;;;;;;;;5048296;28;20232;-83
2021/10/22 03:54:22;;;;;;;2.07;1.17;;;;;;;;;;5048532;28;20587;-83
2021/10/22 03:56:49;;;;;;;2.37;1.47;;;;;;;;;;5044957;28;20206;-87
2021/10/22 03:59:16;;;;;;;2.67;1.20;;;;;;;;;;5044584;28;20206;-87
2021/10/22 04:01:44;;;;;;;3.20;1.80;;;;;;;;;;5046208;28;20205;-87
2021/10/22 04:04:12;;;;;;;2.57;1.40;;;;;;;;;;5050834;28;20269;-86
2021/10/22 04:06:39;;;;;;;3.43;1.57;;;;;;;;;;5047730;28;20194;-84
2021/10/22 04:09:07;;;;;;;3.83;1.43;;;;;;;;;;5040593;28;20230;-82
2021/10/22 04:11:35;;;;;;;2.50;1.30;;;;;;;;;;5044289;28;20389;-87
2021/10/22 04:14:02;;;;;;;2.70;1.40;;;;;;;;;;5037499;28;20205;-86
2021/10/22 04:16:30;;;;;;;3.27;1.50;;;;;;;;;;5039614;28;20249;-84
2021/10/22 04:18:57;;;;;;;3.10;1.37;;;;;;;;;;5045559;28;20199;-84
2021/10/22 04:21:24;;;;;;;2.20;1.40;;;;;;;;;;5038633;28;20245;-83
2021/10/22 04:23:53;;;;;;;3.40;1.40;;;;;;;;;;5045432;28;20225;-83
2021/10/22 04:26:20;;;;;;;5.23;1.50;;;;;;;;;;5045537;28;20182;-82
2021/10/22 04:28:47;;;;;;;3.37;1.63;;;;;;;;;;5042357;28;20202;-82
2021/10/22 04:31:14;;;;;;;4.80;1.30;;;;;;;;;;5042072;28;20272;-83
2021/10/22 04:33:41;;;;;;;3.40;1.70;;;;;;;;;;5040008;28;20256;-81
2021/10/22 04:36:11;;;;;;;7.10;1.37;;;;;;;;;;5035093;28;20191;-81
2021/10/22 04:41:25;;;;;;;1.87;1.00;;;;;;;;;;5028851;28;20205;-81
2021/10/22 04:43:53;;;;;;;2.47;1.30;;;;;;;;;;5036258;28;20234;-82
2021/10/22 04:46:20;;;;;;;1.97;1.00;;;;;;;;;;5027989;28;20203;-81
2021/10/22 04:48:48;;;;;;;2.43;1.30;;;;;;;;;;5044699;28;20260;-81
2021/10/22 04:51:17;;;;;;;3.17;1.40;;;;;;;;;;5044151;28;20198;-82
2021/10/22 04:53:44;;;;;;;3.07;1.00;;;;;;;;;;5043929;28;20439;-82
2021/10/22 04:56:12;;;;;;;3.27;1.60;;;;;;;;;;5042299;28;20195;-85
2021/10/22 04:58:39;;;;;;;3.17;1.20;;;;;;;;;;5042332;28;20673;-82
2021/10/22 05:01:06;;;;;;;3.10;1.30;;;;;;;;;;5043028;28;20217;-82
2021/10/22 05:03:34;;;;;;;3.73;1.70;;;;;;;;;;5038785;28;20198;-82
2021/10/22 05:06:01;;;;;;;3.00;1.53;;;;;;;;;;5045137;28;20662;-82
2021/10/22 05:08:29;;;;;;;2.60;1.23;;;;;;;;;;5040506;28;20206;-82
2021/10/22 05:10:57;;;;;;;2.60;1.23;;;;;;;;;;5044879;28;20352;-82
2021/10/22 05:13:25;;;;;;;2.07;1.10;;;;;;;;;;5033978;28;20223;-82
2021/10/22 05:15:52;;;;;;;2.30;1.30;;;;;;;;;;5038649;28;20216;-83
2021/10/22 05:18:19;;;;;;;2.77;1.37;;;;;;;;;;5036873;28;20716;-90
2021/10/22 05:20:46;;;;;;;2.23;1.20;;;;;;;;;;5005188;28;20229;-91
2021/10/22 05:23:14;;;;;;;4.93;1.60;;;;;;;;;;5033936;28;20195;-84
2021/10/22 05:25:41;;;;;;;3.00;1.40;;;;;;;;;;5034944;28;20226;-81
2021/10/22 05:28:08;;;;;;;2.93;1.60;;;;;;;;;;5045170;28;20202;-83
2021/10/22 05:30:35;;;;;;;3.53;1.40;;;;;;;;;;5043646;28;20206;-83
2021/10/22 05:33:11;;;;;;;2.70;1.50;;;;;;;;;;5042177;28;20230;-83
2021/10/22 05:35:38;;;;;;;2.20;1.33;;;;;;;;;;5041871;28;20545;-84
2021/10/22 05:38:05;;;;;;;3.93;1.60;;;;;;;;;;5028924;28;20214;-87
2021/10/22 05:40:33;;;;;;;4.60;1.33;;;;;;;;;;5033958;28;20198;-87
2021/10/22 05:43:00;;;;;;;3.67;1.40;;;;;;;;;;5047040;28;20202;-92
2021/10/22 05:45:27;;;;;;;8.20;1.50;;;;;;;;;;5016779;28;20225;-89
2021/10/22 05:47:58;;;;;;;5.43;1.93;;;;;;;;;;5029489;28;20203;-88
2021/10/22 05:50:25;;;;;;;5.67;1.37;;;;;;;;;;5040244;28;20213;-89
2021/10/22 05:52:53;;;;;;;3.50;1.50;;;;;;;;;;5048102;28;20206;-89
2021/10/22 05:55:21;;;;;;;4.83;1.80;;;;;;;;;;5045534;28;20213;-94
2021/10/22 05:57:48;;;;;;;5.70;2.07;;;;;;;;;;5045898;28;20214;-94
2021/10/22 06:00:15;;;;;;;3.37;1.67;;;;;;;;;;5046528;28;20194;-90
2021/10/22 06:02:44;;;;;;;3.97;1.70;;;;;;;;;;5029722;28;20195;-91
2021/10/22 06:05:12;;;;;;;3.07;1.40;;;;;;;;;;5042232;28;20681;-90
2021/10/22 06:07:39;;;;;;;4.45;1.80;;;;;;;;;;5026439;28;20868;-85
2021/10/22 06:10:06;;;;;;;5.20;1.70;;;;;;;;;;5041945;28;20245;-83
2021/10/22 06:12:33;;;;;;;4.10;1.90;;;;;;;;;;5046786;28;20658;-83
2021/10/22 06:15:01;;;;;;;5.10;2.30;;;;;;;;;;5042380;28;20684;-84
2021/10/22 06:17:28;;;;;;;6.13;2.10;;;;;;;;;;5040526;28;20221;-82
2021/10/22 06:19:57;;;;;;;4.43;1.83;;;;;;;;;;5038873;28;20343;-82
2021/10/22 06:25:04;;;;;;;8.27;2.27;;;;;;;;;;5042391;28;20222;-88
2021/10/22 06:27:31;;;;;;;6.20;2.00;;;;;;;;;;5044567;28;20677;-88
2021/10/22 06:29:59;;;;;;;6.00;2.23;;;;;;;;;;5037439;28;20561;-94
2021/10/22 06:32:26;;;;;;;8.03;2.60;;;;;;;;;;5039286;28;20587;-88
2021/10/22 06:34:54;;;;;;;9.37;2.10;;;;;;;;;;5043657;28;20191;-86
2021/10/22 06:37:21;;;;;;;8.97;2.70;;;;;;;;;;5037826;28;20206;-82
2021/10/22 06:39:48;;;;;;;9.87;3.03;;;;;;;;;;5035845;28;20201;-82
2021/10/22 06:42:16;;;;;;;7.23;2.57;;;;;;;;;;5043773;28;20210;-84
2021/10/22 06:44:43;;;;;;;12.17;3.30;;;;;;;;;;5043285;28;20238;-84
2021/10/22 06:47:14;;;;;;;10.23;2.63;;;;;;;;;;5044802;28;20237;-84
2021/10/22 06:49:42;;;;;;;10.53;3.03;;;;;;;;;;5044350;28;20742;-84
2021/10/22 06:52:09;;;;;;;10.70;3.10;;;;;;;;;;5038519;28;20860;-82
2021/10/22 06:54:36;;;;;;;10.53;3.23;;;;;;;;;;5034038;28;20210;-81
2021/10/22 06:57:04;;;;;;;9.90;3.07;;;;;;;;;;5036380;28;20229;-82
2021/10/22 06:59:31;;;;;;;8.77;2.97;;;;;;;;;;5033125;28;20198;-82
2021/10/22 07:01:58;;;;;;;7.53;2.77;;;;;;;;;;5036155;28;20194;-87
2021/10/22 07:04:26;;;;;;;5.17;2.20;;;;;;;;;;5030957;28;20246;-85
2021/10/22 07:07:15;;;;;;;8.97;3.20;;;;;;;;;;5041997;28;20708;-89
2021/10/22 07:09:43;;;;;;;8.80;2.63;;;;;;;;;;5033278;28;20229;-83
2021/10/22 07:12:11;;;;;;;5.97;2.70;;;;;;;;;;5034645;28;20209;-86
2021/10/22 07:14:47;;;;;;;6.60;2.27;;;;;;;;;;5032877;28;20213;-88
2021/10/22 07:17:15;;;;;;;4.90;2.40;;;;;;;;;;5041780;28;20221;-85
2021/10/22 07:19:42;;;;;;;4.30;2.40;;;;;;;;;;5038025;28;20238;-87
2021/10/22 07:22:13;;;;;;;9.40;2.47;;;;;;;;;;5037398;28;20233;-89
2021/10/22 07:24:41;;;;;;;4.00;1.90;;;;;;;;;;5040011;28;20214;-88
2021/10/22 07:27:08;;;;;;;3.93;2.27;;;;;;;;;;5041890;28;20193;-90
2021/10/22 07:29:35;;;;;;;5.80;2.10;;;;;;;;;;5042969;28;20191;-89
2021/10/22 07:32:03;;;;;;;5.60;1.93;;;;;;;;;;5020942;28;20214;-91
2021/10/22 07:34:30;;;;;;;5.37;2.23;;;;;;;;;;5031333;28;20251;-87
2021/10/22 07:36:57;;;;;;;5.53;1.80;;;;;;;;;;5035607;28;20210;-86
2021/10/22 07:39:24;;;;;;;4.00;1.93;;;;;;;;;;5042661;28;20261;-88
2021/10/22 07:42:05;;;;;;;5.70;2.10;;;;;;;;;;5036096;28;20202;-84
2021/10/22 07:44:49;;;;;;;8.20;2.60;;;;;;;;;;5035766;28;20308;-86
2021/10/22 07:47:16;;;;;;;7.77;1.90;;;;;;;;;;5021413;28;20187;-88
2021/10/22 07:49:47;;;;;;;5.87;2.17;;;;;;;;;;5036757;28;20183;-82
2021/10/22 07:52:15;;;;;;;3.97;1.90;;;;;;;;;;5036584;28;20217;-83
2021/10/22 07:54:42;;;;;;;4.47;1.90;;;;;;;;;;5034745;28;20646;-89
2021/10/22 07:57:10;;;;;;;3.43;1.90;;;;;;;;;;5038493;28;20751;-88
2021/10/22 07:59:37;;;;;;;6.07;2.10;;;;;;;;;;5036936;28;20194;-88
2021/10/22 08:02:07;;;;;;;10.03;2.20;;;;;;;;;;5026205;28;20198;-84
2021/10/22 08:04:43;;;;;;;5.23;2.20;;;;;;;;;;5042437;28;20281;-88
2021/10/22 08:07:11;;;;;;;6.32;2.70;;;;;;;;;;5040911;28;20425;-81
2021/10/22 08:09:39;;;;;;;4.40;2.00;;;;;;;;;;5041953;28;20268;-90
2021/10/22 08:12:07;;;;;;;6.60;1.70;;;;;;;;;;5044229;28;20194;-90
2021/10/22 08:14:34;;;;;;;3.17;1.53;;;;;;;;;;5048721;28;20198;-89
2021/10/22 08:17:01;;;;;;;2.70;1.60;;;;;;;;;;5024956;28;20218;-82
2021/10/22 08:19:29;;;;;;;2.80;1.80;;;;;;;;;;5041663;28;20213;-86
2021/10/22 08:24:33;;;;;;;3.63;1.50;;;;;;;;;;5036508;28;20209;-85
2021/10/22 08:27:01;;;;;;;3.03;1.63;;;;;;;;;;5045087;28;20198;-89
2021/10/22 08:29:28;;;;;;;4.30;1.50;;;;;;;;;;5038318;28;20187;-88
2021/10/22 08:31:55;;;;;;;3.10;1.63;;;;;;;;;;5040905;28;20219;-87
2021/10/22 08:34:23;;;;;;;2.13;1.20;;;;;;;;;;5018080;28;20202;-86
2021/10/22 08:36:50;;;;;;;3.07;1.70;;;;;;;;;;5041821;28;20194;-88
2021/10/22 08:39:18;;;;;;;4.37;1.60;;;;;;;;;;5040795;28;20198;-89
2021/10/22 08:41:46;;;;;;;5.90;1.80;;;;;;;;;;5027813;28;20237;-91
2021/10/22 08:44:18;;;;;;;4.70;1.50;;;;;;;;;;5024426;28;20206;-92
2021/10/22 08:46:49;;;;;;;2.27;1.40;;;;;;;;;;5042859;28;20217;-88
2021/10/22 08:49:17;;;;;;;4.10;1.50;;;;;;;;;;5036059;28;20654;-88
2021/10/22 08:51:44;;;;;;;2.43;1.40;;;;;;;;;;5043207;28;20202;-88
2021/10/22 08:54:12;;;;;;;3.90;1.83;;;;;;;;;;5046015;28;20564;-84
2021/10/22 08:56:40;;;;;;;4.87;1.70;;;;;;;;;;5021046;28;20293;-85
2021/10/22 08:59:08;;;;;;;2.43;1.57;;;;;;;;;;5043850;28;20681;-88
2021/10/22 09:01:36;;;;;;;2.87;1.60;;;;;;;;;;5039722;28;20211;-90
2021/10/22 09:04:04;;;;;;;3.17;1.63;;;;;;;;;;5037161;28;20226;-88
2021/10/22 09:06:48;;;;;;;3.83;1.77;;;;;;;;;;5047101;28;20211;-88
2021/10/22 09:09:18;;;;;;;3.83;2.00;;;;;;;;;;5029126;28;20713;-87
2021/10/22 09:11:48;;;;;;;2.00;1.33;;;;;;;;;;5043336;28;20202;-86
2021/10/22 09:14:17;;;;;;;3.27;1.63;;;;;;;;;;5043901;28;20695;-90
2021/10/22 09:16:49;;;;;;;4.87;1.70;;;;;;;;;;5020399;28;20596;-86
2021/10/22 09:19:36;;;;;;;7.70;2.03;;;;;;;;;;5034198;28;20210;-87
2021/10/22 09:22:23;;;;;;;4.17;1.93;;;;;;;;;;5023444;28;20199;-84
2021/10/22 09:24:52;;;;;;;2.40;1.53;;;;;;;;;;5045374;28;20565;-86
2021/10/22 09:27:36;;;;;;;5.67;1.60;;;;;;;;;;5034099;28;20224;-87
2021/10/22 09:30:04;;;;;;;3.10;1.43;;;;;;;;;;5042692;28;20207;-84
2021/10/22 09:32:32;;;;;;;3.97;1.43;;;;;;;;;;5038263;28;20205;-82
2021/10/22 09:35:05;;;;;;;3.03;1.57;;;;;;;;;;5044040;28;20676;-83
2021/10/22 09:37:39;;;;;;;3.97;1.77;;;;;;;;;;5033743;28;20256;-82
2021/10/22 09:40:07;;;;;;;2.33;1.83;;;;;;;;;;5040285;28;20209;-82
2021/10/22 09:42:37;;;;;;;3.37;2.00;;;;;;;;;;5019051;28;20206;-82
2021/10/22 09:45:04;;;;;;;4.07;1.40;;;;;;;;;;5038838;28;20238;-84
2021/10/22 09:47:32;;;;;;;3.23;1.40;;;;;;;;;;5044873;28;20198;-84
2021/10/22 09:50:09;;;;;;;5.10;1.93;;;;;;;;;;5043205;28;20285;-81
2021/10/22 09:52:36;;;;;;;6.50;2.27;;;;;;;;;;5037599;28;20553;-80
2021/10/22 09:55:14;;;;;;;4.63;1.90;;;;;;;;;;5045828;28;20209;-87
2021/10/22 09:57:43;;;;;;;5.47;1.90;;;;;;;;;;5038504;28;20194;-83
2021/10/22 10:00:12;;;;;;;4.43;1.77;;;;;;;;;;5044395;28;20215;-83
2021/10/22 10:02:45;;;;;;;2.47;1.57;;;;;;;;;;5034505;28;20190;-84
2021/10/22 10:05:13;;;;;;;4.27;1.70;;;;;;;;;;5042786;28;20214;-83
2021/10/22 10:07:41;;;;;;;17.63;1.80;;;;;;;;;;5013602;28;20237;-79
2021/10/22 10:10:09;;;;;;;4.00;1.60;;;;;;;;;;5042470;28;20234;-83
2021/10/22 10:12:43;;;;;;;5.23;1.90;;;;;;;;;;5044563;28;20260;-86
2021/10/22 10:15:11;;;;;;;3.30;1.80;;;;;;;;;;5041833;28;20217;-85
2021/10/22 10:17:45;;;;;;;7.53;1.53;;;;;;;;;;5040742;28;20190;-85
2021/10/22 10:20:18;;;;;;;5.17;2.20;;;;;;;;;;5038367;28;20708;-84
2021/10/22 10:22:46;;;;;;;2.87;1.77;;;;;;;;;;5045329;28;20209;-86
2021/10/22 10:25:18;;;;;;;4.40;1.87;;;;;;;;;;5039643;28;20265;-85
2021/10/22 10:27:53;;;;;;;3.67;1.80;;;;;;;;;;5042212;28;20248;-84
2021/10/22 10:30:33;;;;;;;5.83;2.20;;;;;;;;;;5040486;28;20198;-85
2021/10/22 10:33:07;;;;;;;4.80;1.67;;;;;;;;;;5012682;28;20194;-86
2021/10/22 10:35:35;;;;;;;3.77;1.83;;;;;;;;;;5041024;28;20194;-90
2021/10/22 10:38:03;;;;;;;4.37;1.93;;;;;;;;;;5044817;28;20217;-83
2021/10/22 10:40:31;;;;;;;7.67;2.00;;;;;;;;;;5038565;28;20209;-82
2021/10/22 10:43:02;;;;;;;3.17;1.50;;;;;;;;;;5034370;28;20793;-82
2021/10/22 10:45:30;;;;;;;4.97;1.60;;;;;;;;;;5036122;28;20222;-89
2021/10/22 10:47:59;;;;;;;3.53;1.53;;;;;;;;;;5045581;28;20206;-81
2021/10/22 10:50:38;;;;;;;3.53;1.40;;;;;;;;;;5038538;28;20230;-85
2021/10/22 10:53:07;;;;;;;3.20;1.60;;;;;;;;;;5035635;28;20198;-85
2021/10/22 10:55:41;;;;;;;4.00;1.30;;;;;;;;;;5034776;28;20197;-85
2021/10/22 10:58:08;;;;;;;3.23;1.40;;;;;;;;;;5036985;28;20209;-85
2021/10/22 11:00:35;;;;;;;4.37;1.70;;;;;;;;;;5024178;28;20212;-83
2021/10/22 11:03:03;;;;;;;1.53;1.03;;;;;;;;;;5041656;28;20195;-84
2021/10/22 11:05:43;;;;;;;3.93;1.30;;;;;;;;;;5036691;28;20618;-84
2021/10/22 11:08:13;;;;;;;3.67;1.23;;;;;;;;;;5028379;28;20699;-80
2021/10/22 11:11:15;;;;;;;2.63;1.50;;;;;;;;;;5040561;28;20226;-82
2021/10/22 11:13:43;;;;;;;2.37;1.10;;;;;;;;;;4995750;28;20210;-84
2021/10/22 11:16:11;;;;;;;4.77;1.50;;;;;;;;;;5040211;28;20244;-84
2021/10/22 11:18:39;;;;;;;3.73;1.57;;;;;;;;;;5028507;28;20774;-80
2021/10/22 11:21:07;;;;;;;2.40;1.27;;;;;;;;;;5033141;28;20217;-79
2021/10/22 11:23:37;;;;;;;2.43;1.07;;;;;;;;;;5034986;28;20209;-82
2021/10/22 11:26:04;;;;;;;2.97;1.30;;;;;;;;;;5043992;28;20260;-82
2021/10/22 11:28:31;;;;;;;2.33;1.33;;;;;;;;;;5034077;28;20225;-84
2021/10/22 11:31:00;;;;;;;2.23;1.07;;;;;;;;;;5037940;28;20247;-86
2021/10/22 11:33:27;;;;;;;2.97;1.30;;;;;;;;;;5034215;28;20803;-84
2021/10/22 11:35:54;;;;;;;2.47;1.23;;;;;;;;;;5042977;28;20201;-83
2021/10/22 11:38:28;;;;;;;6.63;1.53;;;;;;;;;;5047480;28;20206;-88
2021/10/22 11:41:11;;;;;;;2.17;1.10;;;;;;;;;;5045699;28;20213;-81
2021/10/22 11:43:39;;;;;;;2.40;1.20;;;;;;;;;;5025583;28;20224;-86
2021/10/22 11:46:19;;;;;;;4.10;1.23;;;;;;;;;;5023026;28;20211;-84
2021/10/22 11:48:50;;;;;;;2.67;1.57;;;;;;;;;;5038318;28;20574;-82
2021/10/22 11:51:29;;;;;;;3.17;1.17;;;;;;;;;;5033166;28;20195;-80
2021/10/22 11:53:56;;;;;;;3.00;1.00;;;;;;;;;;5045414;28;21034;-83
2021/10/22 11:56:26;;;;;;;3.43;1.37;;;;;;;;;;5041662;28;20843;-81
2021/10/22 11:58:53;;;;;;;2.97;1.00;;;;;;;;;;5044824;28;20576;-83
2021/10/22 12:01:21;;;;;;;2.93;1.20;;;;;;;;;;5043407;28;20198;-84
2021/10/22 12:03:55;;;;;;;4.90;1.50;;;;;;;;;;5026096;28;20203;-80
2021/10/22 12:06:23;;;;;;;6.53;1.87;;;;;;;;;;5046960;28;20217;-88
2021/10/22 12:08:51;;;;;;;7.27;1.83;;;;;;;;;;5040942;28;20264;-82
2021/10/22 12:11:19;;;;;;;4.87;1.80;;;;;;;;;;5042857;28;20230;-83
2021/10/22 12:13:46;;;;;;;7.20;1.80;;;;;;;;;;5043950;28;20198;-82
2021/10/22 12:16:20;;;;;;;8.23;2.00;;;;;;;;;;5043333;28;20301;-80
2021/10/22 12:19:00;;;;;;;7.53;1.83;;;;;;;;;;5046033;28;20697;-84
2021/10/22 12:21:28;;;;;;;10.77;2.37;;;;;;;;;;5039364;28;20673;-81
2021/10/22 12:23:59;;;;;;;8.77;2.00;;;;;;;;;;5044574;28;20277;-78
2021/10/22 12:26:27;;;;;;;7.83;1.93;;;;;;;;;;5046329;28;20206;-83
2021/10/22 12:28:59;;;;;;;7.17;1.80;;;;;;;;;;5044654;28;20233;-82
2021/10/22 12:31:30;;;;;;;8.67;1.53;;;;;;;;;;5039393;28;20210;-82
2021/10/22 12:34:18;;;;;;;10.63;2.20;;;;;;;;;;5043865;28;20647;-84
2021/10/22 12:36:45;;;;;;;12.80;1.53;;;;;;;;;;5034732;28;20210;-82
2021/10/22 12:39:26;;;;;;;6.00;1.10;;;;;;;;;;5045217;28;20206;-88
2021/10/22 12:41:53;;;;;;;5.10;1.93;;;;;;;;;;5028815;28;20191;-86
2021/10/22 12:44:29;;;;;;;8.23;1.93;;;;;;;;;;5035948;28;20214;-86
2021/10/22 12:46:57;;;;;;;5.00;1.73;;;;;;;;;;5046136;28;20237;-85
2021/10/22 12:49:25;;;;;;;9.10;2.43;;;;;;;;;;5040958;28;20198;-87
2021/10/22 12:51:56;;;;;;;4.67;1.80;;;;;;;;;;5028202;28;20203;-87
2021/10/22 12:54:24;;;;;;;5.63;1.60;;;;;;;;;;5038900;28;20203;-87
2021/10/22 12:56:58;;;;;;;3.43;1.33;;;;;;;;;;5039315;28;20210;-92
2021/10/22 12:59:29;;;;;;;3.27;1.33;;;;;;;;;;5024292;28;20214;-91
2021/10/22 13:01:56;;;;;;;4.70;1.67;;;;;;;;;;5042124;28;20317;-83
2021/10/22 13:04:25;;;;;;;5.07;1.20;;;;;;;;;;5041435;28;20206;-83
2021/10/22 13:09:45;;;;;;;4.23;1.50;;;;;;;;;;5035779;28;20276;-80
2021/10/22 13:12:38;;;;;;;3.37;1.27;;;;;;;;;;5046429;28;20210;-85
2021/10/22 13:20:45;;;;;;;5.10;1.63;;;;;;;;;;5010515;28;20578;-88
2021/10/22 13:23:14;;;;;;;6.23;1.30;;;;;;;;;;5045865;28;20203;-90
2021/10/22 13:25:47;;;;;;;6.43;1.50;;;;;;;;;;5027146;28;20214;-85
2021/10/22 13:28:19;;;;;;;5.20;1.30;;;;;;;;;;5027589;28;20205;-87
2021/10/22 13:30:55;;;;;;;9.53;1.70;;;;;;;;;;5021139;28;20210;-84
2021/10/22 13:33:28;;;;;;;9.53;1.70;;;;;;;;;;5021025;28;20206;-85
2021/10/22 13:35:56;;;;;;;14.33;2.00;;;;;;;;;;5037449;28;20563;-86
2021/10/22 13:38:23;;;;;;;7.50;1.83;;;;;;;;;;5042227;28;20198;-84
2021/10/22 13:40:51;;;;;;;6.50;1.73;;;;;;;;;;5037746;28;20206;-90
2021/10/22 13:43:18;;;;;;;6.07;1.90;;;;;;;;;;5038914;28;20206;-85
2021/10/22 13:45:46;;;;;;;9.73;2.13;;;;;;;;;;5026624;28;20223;-91
2021/10/22 13:48:13;;;;;;;7.27;2.27;;;;;;;;;;5038229;28;20221;-90
2021/10/22 13:50:40;;;;;;;4.80;1.43;;;;;;;;;;5029709;28;20199;-92
2021/10/22 13:53:08;;;;;;;8.10;1.50;;;;;;;;;;5042419;28;20209;-91
2021/10/22 13:55:35;;;;;;;5.03;1.30;;;;;;;;;;5031979;28;20209;-91
2021/10/22 13:58:03;;;;;;;8.03;1.63;;;;;;;;;;5038364;28;20218;-90
2021/10/22 14:00:32;;;;;;;5.47;1.40;;;;;;;;;;5041863;28;20667;-91
2021/10/22 14:03:00;;;;;;;4.33;1.20;;;;;;;;;;5041857;28;20203;-90
2021/10/22 14:05:28;;;;;;;3.23;1.50;;;;;;;;;;5018782;28;20213;-91
2021/10/22 14:07:56;;;;;;;4.47;1.63;;;;;;;;;;5025442;28;20285;-91
2021/10/22 14:10:25;;;;;;;7.83;1.30;;;;;;;;;;5038114;28;20830;-92
2021/10/22 14:18:36;;;;;;;5.00;1.27;;;;;;;;;;5036566;28;20224;-90
2021/10/22 14:24:09;;;;;;;3.63;1.30;;;;;;;;;;5040620;28;20206;-92
2021/10/22 14:29:23;;;;;;;4.00;1.30;;;;;;;;;;5031092;28;20202;-86
2021/10/22 14:31:50;;;;;;;5.60;1.37;;;;;;;;;;5019045;28;20214;-84
2021/10/22 14:34:17;;;;;;;3.90;1.23;;;;;;;;;;5032183;28;20209;-84
2021/10/22 14:36:45;;;;;;;4.10;1.30;;;;;;;;;;5038049;28;20202;-83
2021/10/22 14:39:12;;;;;;;3.83;1.30;;;;;;;;;;5036606;28;20198;-84
2021/10/22 14:41:40;;;;;;;4.90;1.43;;;;;;;;;;5035062;28;20210;-85
2021/10/22 14:44:17;;;;;;;3.13;1.10;;;;;;;;;;5035748;28;20234;-87
2021/10/22 14:46:54;;;;;;;3.10;1.27;;;;;;;;;;5032452;28;20227;-87
2021/10/22 14:49:25;;;;;;;3.03;1.13;;;;;;;;;;5033373;28;20210;-88
2021/10/22 14:54:29;;;;;;;12.30;1.63;;;;;;;;;;5037697;28;20229;-88
2021/10/22 14:56:56;;;;;;;3.13;1.00;;;;;;;;;;5024889;28;20237;-88
2021/10/22 14:59:23;;;;;;;2.53;1.00;;;;;;;;;;5037664;28;20553;-88
2021/10/22 15:01:51;;;;;;;2.27;1.10;;;;;;;;;;5045661;28;20194;-88
2021/10/22 15:04:18;;;;;;;5.83;1.23;;;;;;;;;;5041499;28;20244;-88
2021/10/22 15:06:47;;;;;;;2.97;1.30;;;;;;;;;;5027040;28;20265;-88
2021/10/22 15:09:15;;;;;;;3.33;1.27;;;;;;;;;;5035607;28;20720;-87
2021/10/22 15:11:42;;;;;;;2.57;0.97;;;;;;;;;;5026352;28;20697;-88
2021/10/22 15:14:09;;;;;;;2.90;1.20;;;;;;;;;;5043604;28;20588;-89
2021/10/22 15:16:36;;;;;;;3.53;1.40;;;;;;;;;;5043273;28;20195;-88
2021/10/22 15:19:04;;;;;;;5.57;0.93;;;;;;;;;;5035628;28;20650;-87
2021/10/22 15:21:31;;;;;;;2.83;1.10;;;;;;;;;;5025493;28;20203;-88
2021/10/22 15:23:59;;;;;;;4.03;1.43;;;;;;;;;;5016415;28;20218;-88